createdAt,value
2018-04-26T00:00:41.793Z,0.00
2018-04-26T00:01:41.522Z,0.00
2018-04-26T00:02:41.549Z,0.00
2018-04-26T00:03:41.579Z,0.00
2018-04-26T00:04:41.608Z,0.00
2018-04-26T00:05:41.640Z,0.00
2018-04-26T00:06:43.173Z,0.00
2018-04-26T00:07:41.702Z,0.00
2018-04-26T00:08:42.404Z,0.00
2018-04-26T00:09:41.767Z,0.00
2018-04-26T00:10:41.798Z,0.00
2018-04-26T00:11:41.835Z,0.00
2018-04-26T00:12:42.163Z,0.00
2018-04-26T00:13:41.889Z,0.00
2018-04-26T00:14:41.917Z,0.00
2018-04-26T00:15:41.948Z,0.00
2018-04-26T00:16:41.994Z,0.00
2018-04-26T00:17:42.014Z,0.00
2018-04-26T00:18:42.393Z,0.00
2018-04-26T00:19:42.279Z,0.00
2018-04-26T00:20:42.112Z,0.00
2018-04-26T00:21:42.351Z,0.00
2018-04-26T00:22:42.194Z,0.00
2018-04-26T00:23:42.324Z,0.00
2018-04-26T00:24:42.537Z,0.00
2018-04-26T00:25:42.258Z,0.00
2018-04-26T00:26:42.298Z,0.00
2018-04-26T00:27:42.324Z,0.00
2018-04-26T00:28:42.703Z,0.00
2018-04-26T00:29:42.386Z,0.00
2018-04-26T00:30:42.714Z,0.00
2018-04-26T00:31:42.464Z,0.00
2018-04-26T00:32:42.477Z,0.00
2018-04-26T00:33:42.649Z,0.00
2018-04-26T00:34:42.539Z,0.00
2018-04-26T00:35:42.931Z,0.00
2018-04-26T00:36:42.922Z,0.00
2018-04-26T00:37:42.654Z,0.00
2018-04-26T00:38:43.063Z,0.00
2018-04-26T00:39:42.693Z,0.00
2018-04-26T00:40:42.721Z,0.00
2018-04-26T00:41:44.019Z,0.00
2018-04-26T00:42:43.092Z,0.00
2018-04-26T00:43:42.818Z,0.00
2018-04-26T00:44:42.846Z,0.00
2018-04-26T00:45:42.891Z,0.00
2018-04-26T00:46:42.924Z,0.00
2018-04-26T00:47:44.332Z,0.00
2018-04-26T00:48:43.287Z,0.00
2018-04-26T00:49:43.013Z,0.00
2018-04-26T00:50:43.043Z,0.00
2018-04-26T00:51:43.112Z,0.00
2018-04-26T00:52:43.115Z,0.00
2018-04-26T00:53:43.125Z,0.00
2018-04-26T00:54:43.739Z,0.00
2018-04-26T00:55:43.193Z,0.00
2018-04-26T00:56:43.217Z,0.00
2018-04-26T00:57:43.247Z,0.00
2018-04-26T00:58:43.278Z,0.00
2018-04-26T00:59:43.308Z,0.00
2018-04-26T01:00:43.662Z,0.00
2018-04-26T01:01:43.685Z,0.00
2018-04-26T01:02:43.451Z,0.00
2018-04-26T01:03:44.647Z,0.00
2018-04-26T01:04:43.514Z,0.00
2018-04-26T01:05:43.505Z,0.00
2018-04-26T01:06:43.824Z,0.00
2018-04-26T01:07:43.834Z,0.00
2018-04-26T01:08:43.589Z,0.00
2018-04-26T01:09:43.618Z,0.00
2018-04-26T01:10:43.653Z,0.00
2018-04-26T01:11:43.676Z,0.00
2018-04-26T01:12:44.197Z,0.00
2018-04-26T01:13:43.738Z,0.00
2018-04-26T01:14:43.765Z,0.00
2018-04-26T01:15:43.857Z,0.00
2018-04-26T01:16:43.832Z,0.00
2018-04-26T01:17:43.876Z,0.00
2018-04-26T01:18:44.197Z,0.00
2018-04-26T01:19:43.923Z,0.00
2018-04-26T01:20:43.954Z,0.00
2018-04-26T01:21:43.980Z,0.00
2018-04-26T01:22:44.019Z,0.00
2018-04-26T01:23:45.239Z,0.00
2018-04-26T01:24:44.374Z,0.00
2018-04-26T01:25:44.157Z,0.00
2018-04-26T01:26:44.294Z,0.00
2018-04-26T01:27:44.225Z,0.00
2018-04-26T01:28:44.998Z,0.00
2018-04-26T01:29:44.228Z,0.00
2018-04-26T01:30:45.756Z,0.00
2018-04-26T01:31:44.312Z,0.00
2018-04-26T01:32:44.388Z,0.00
2018-04-26T01:33:44.345Z,0.00
2018-04-26T01:34:44.383Z,0.00
2018-04-26T01:35:44.415Z,0.00
2018-04-26T01:36:44.739Z,0.00
2018-04-26T01:37:44.479Z,0.00
2018-04-26T01:38:44.499Z,0.00
2018-04-26T01:39:45.779Z,0.00
2018-04-26T01:40:44.560Z,0.00
2018-04-26T01:41:44.590Z,0.00
2018-04-26T01:42:44.620Z,0.00
2018-04-26T01:43:44.690Z,0.00
2018-04-26T01:44:44.692Z,0.00
2018-04-26T01:45:44.713Z,0.00
2018-04-26T01:46:44.945Z,0.00
2018-04-26T01:47:45.138Z,0.00
2018-04-26T01:48:46.011Z,0.00
2018-04-26T01:49:44.846Z,0.00
2018-04-26T01:50:45.613Z,0.00
2018-04-26T01:51:44.920Z,0.00
2018-04-26T01:52:44.935Z,0.00
2018-04-26T01:53:45.262Z,0.00
2018-04-26T01:54:45.000Z,0.00
2018-04-26T01:55:45.018Z,0.00
2018-04-26T01:56:46.238Z,0.00
2018-04-26T01:57:45.078Z,0.00
2018-04-26T01:58:45.107Z,0.00
2018-04-26T01:59:45.630Z,0.00
2018-04-26T02:00:45.228Z,0.00
2018-04-26T02:01:45.200Z,0.00
2018-04-26T02:02:45.236Z,0.00
2018-04-26T02:03:45.264Z,0.00
2018-04-26T02:04:45.288Z,0.00
2018-04-26T02:05:45.628Z,0.00
2018-04-26T02:06:45.348Z,0.00
2018-04-26T02:07:45.462Z,0.00
2018-04-26T02:08:45.403Z,0.00
2018-04-26T02:09:45.805Z,0.00
2018-04-26T02:10:45.563Z,0.00
2018-04-26T02:11:46.182Z,0.00
2018-04-26T02:12:45.535Z,0.00
2018-04-26T02:13:46.898Z,0.00
2018-04-26T02:14:45.653Z,0.00
2018-04-26T02:15:45.615Z,0.00
2018-04-26T02:16:45.686Z,0.00
2018-04-26T02:17:45.978Z,0.00
2018-04-26T02:18:45.785Z,0.00
2018-04-26T02:19:45.745Z,0.00
2018-04-26T02:20:45.782Z,0.00
2018-04-26T02:21:45.798Z,0.00
2018-04-26T02:22:45.905Z,0.00
2018-04-26T02:23:46.577Z,0.00
2018-04-26T02:24:45.886Z,0.00
2018-04-26T02:25:45.958Z,0.00
2018-04-26T02:26:45.956Z,0.00
2018-04-26T02:27:45.977Z,0.00
2018-04-26T02:28:46.006Z,0.00
2018-04-26T02:29:46.366Z,0.00
2018-04-26T02:30:46.305Z,0.00
2018-04-26T02:31:46.102Z,0.00
2018-04-26T02:32:46.134Z,0.00
2018-04-26T02:33:46.155Z,0.00
2018-04-26T02:34:46.201Z,0.00
2018-04-26T02:35:46.514Z,0.00
2018-04-26T02:36:47.023Z,0.00
2018-04-26T02:37:46.280Z,0.00
2018-04-26T02:38:46.810Z,0.00
2018-04-26T02:39:46.364Z,0.00
2018-04-26T02:40:46.433Z,0.00
2018-04-26T02:41:46.702Z,0.00
2018-04-26T02:42:46.487Z,0.00
2018-04-26T02:43:46.458Z,0.00
2018-04-26T02:44:46.496Z,0.00
2018-04-26T02:45:46.571Z,0.00
2018-04-26T02:46:46.545Z,0.00
2018-04-26T02:47:47.166Z,0.00
2018-04-26T02:48:46.917Z,0.00
2018-04-26T02:49:46.736Z,0.00
2018-04-26T02:50:46.669Z,0.00
2018-04-26T02:51:46.695Z,0.00
2018-04-26T02:52:46.724Z,0.00
2018-04-26T02:53:46.762Z,0.00
2018-04-26T02:54:46.788Z,0.00
2018-04-26T02:55:47.122Z,0.00
2018-04-26T02:56:48.047Z,0.00
2018-04-26T02:57:46.901Z,0.00
2018-04-26T02:58:48.140Z,0.00
2018-04-26T02:59:46.935Z,0.00
2018-04-26T03:00:46.966Z,0.00
2018-04-26T03:01:47.297Z,0.00
2018-04-26T03:02:47.028Z,0.00
2018-04-26T03:03:47.056Z,0.00
2018-04-26T03:04:47.083Z,0.00
2018-04-26T03:05:47.367Z,0.00
2018-04-26T03:06:47.162Z,0.00
2018-04-26T03:07:47.491Z,0.00
2018-04-26T03:08:47.219Z,0.00
2018-04-26T03:09:47.441Z,0.00
2018-04-26T03:10:47.315Z,0.00
2018-04-26T03:11:47.546Z,0.00
2018-04-26T03:12:47.326Z,0.00
2018-04-26T03:13:48.610Z,0.00
2018-04-26T03:14:47.684Z,0.00
2018-04-26T03:15:47.436Z,0.00
2018-04-26T03:16:47.452Z,0.00
2018-04-26T03:17:47.474Z,0.00
2018-04-26T03:18:47.501Z,0.00
2018-04-26T03:19:47.533Z,0.00
2018-04-26T03:20:47.866Z,0.00
2018-04-26T03:21:47.600Z,0.00
2018-04-26T03:22:47.761Z,0.00
2018-04-26T03:23:47.653Z,0.00
2018-04-26T03:24:47.892Z,0.00
2018-04-26T03:25:47.735Z,0.00
2018-04-26T03:26:48.217Z,0.00
2018-04-26T03:27:47.822Z,0.00
2018-04-26T03:28:47.857Z,0.00
2018-04-26T03:29:47.834Z,0.00
2018-04-26T03:30:47.864Z,0.00
2018-04-26T03:31:47.895Z,0.00
2018-04-26T03:32:48.277Z,0.00
2018-04-26T03:33:47.957Z,0.00
2018-04-26T03:34:48.186Z,0.00
2018-04-26T03:35:48.116Z,0.00
2018-04-26T03:36:48.627Z,0.00
2018-04-26T03:37:48.137Z,0.00
2018-04-26T03:38:48.101Z,0.00
2018-04-26T03:39:48.430Z,0.00
2018-04-26T03:40:48.166Z,0.00
2018-04-26T03:41:48.217Z,0.00
2018-04-26T03:42:48.256Z,0.00
2018-04-26T03:43:48.250Z,0.00
2018-04-26T03:44:48.284Z,0.00
2018-04-26T03:45:48.797Z,0.00
2018-04-26T03:46:48.343Z,0.00
2018-04-26T03:47:49.832Z,0.00
2018-04-26T03:48:48.397Z,0.00
2018-04-26T03:49:49.977Z,4.00
2018-04-26T03:50:48.600Z,4.00
2018-04-26T03:51:48.800Z,4.00
2018-04-26T03:52:48.518Z,4.00
2018-04-26T03:53:48.551Z,4.00
2018-04-26T03:54:48.583Z,8.00
2018-04-26T03:55:48.658Z,4.00
2018-04-26T03:56:48.775Z,8.00
2018-04-26T03:57:48.971Z,8.00
2018-04-26T03:58:48.909Z,8.00
2018-04-26T03:59:48.784Z,8.00
2018-04-26T04:00:49.778Z,12.00
2018-04-26T04:01:48.796Z,16.00
2018-04-26T04:02:48.839Z,16.00
2018-04-26T04:03:49.157Z,20.00
2018-04-26T04:04:48.880Z,24.00
2018-04-26T04:05:49.339Z,28.00
2018-04-26T04:06:48.936Z,28.00
2018-04-26T04:07:48.992Z,32.00
2018-04-26T04:08:49.061Z,40.00
2018-04-26T04:09:50.587Z,44.00
2018-04-26T04:10:49.195Z,56.00
2018-04-26T04:11:49.087Z,60.00
2018-04-26T04:12:49.164Z,64.00
2018-04-26T04:13:49.241Z,72.00
2018-04-26T04:14:49.178Z,76.00
2018-04-26T04:15:49.306Z,80.00
2018-04-26T04:16:49.541Z,84.00
2018-04-26T04:17:49.278Z,88.00
2018-04-26T04:18:50.509Z,96.00
2018-04-26T04:19:49.328Z,104.00
2018-04-26T04:20:49.353Z,120.00
2018-04-26T04:21:49.398Z,128.00
2018-04-26T04:22:49.714Z,144.00
2018-04-26T04:23:49.464Z,156.00
2018-04-26T04:24:49.500Z,172.00
2018-04-26T04:25:49.630Z,180.00
2018-04-26T04:26:50.061Z,192.00
2018-04-26T04:27:49.566Z,200.00
2018-04-26T04:28:50.223Z,212.00
2018-04-26T04:29:49.627Z,228.00
2018-04-26T04:30:50.427Z,232.00
2018-04-26T04:31:49.683Z,252.00
2018-04-26T04:32:49.773Z,280.00
2018-04-26T04:33:49.745Z,276.00
2018-04-26T04:34:50.319Z,300.00
2018-04-26T04:35:49.801Z,308.00
2018-04-26T04:36:49.831Z,312.00
2018-04-26T04:37:49.864Z,312.00
2018-04-26T04:38:49.891Z,320.00
2018-04-26T04:39:49.937Z,328.00
2018-04-26T04:40:50.252Z,332.00
2018-04-26T04:41:50.009Z,360.00
2018-04-26T04:42:50.208Z,356.00
2018-04-26T04:43:50.040Z,356.00
2018-04-26T04:44:50.465Z,384.00
2018-04-26T04:45:50.100Z,396.00
2018-04-26T04:46:50.458Z,372.00
2018-04-26T04:47:50.156Z,368.00
2018-04-26T04:48:50.188Z,380.00
2018-04-26T04:49:50.259Z,340.00
2018-04-26T04:50:50.274Z,328.00
2018-04-26T04:51:50.513Z,332.00
2018-04-26T04:52:50.312Z,340.00
2018-04-26T04:53:50.636Z,376.00
2018-04-26T04:54:50.385Z,420.00
2018-04-26T04:55:50.397Z,488.00
2018-04-26T04:56:50.430Z,552.00
2018-04-26T04:57:50.465Z,576.00
2018-04-26T04:58:50.498Z,584.00
2018-04-26T04:59:51.428Z,596.00
2018-04-26T05:00:50.611Z,628.00
2018-04-26T05:01:51.264Z,708.00
2018-04-26T05:02:50.635Z,688.00
2018-04-26T05:03:50.642Z,688.00
2018-04-26T05:04:50.664Z,684.00
2018-04-26T05:05:51.041Z,720.00
2018-04-26T05:06:50.806Z,724.00
2018-04-26T05:07:50.842Z,764.00
2018-04-26T05:08:50.787Z,780.00
2018-04-26T05:09:50.815Z,796.00
2018-04-26T05:10:50.892Z,836.00
2018-04-26T05:11:51.219Z,856.00
2018-04-26T05:12:50.931Z,880.00
2018-04-26T05:13:50.994Z,892.00
2018-04-26T05:14:50.958Z,900.00
2018-04-26T05:15:50.993Z,900.00
2018-04-26T05:16:51.018Z,932.00
2018-04-26T05:17:51.354Z,944.00
2018-04-26T05:18:51.078Z,996.00
2018-04-26T05:19:51.155Z,1044.00
2018-04-26T05:20:51.137Z,1144.00
2018-04-26T05:21:51.166Z,1096.00
2018-04-26T05:22:51.195Z,1108.00
2018-04-26T05:23:51.525Z,1172.00
2018-04-26T05:24:51.254Z,1260.00
2018-04-26T05:25:51.284Z,1272.00
2018-04-26T05:26:52.514Z,1276.00
2018-04-26T05:27:51.346Z,1264.00
2018-04-26T05:28:51.386Z,1272.00
2018-04-26T05:29:51.739Z,1092.00
2018-04-26T05:30:51.597Z,996.00
2018-04-26T05:31:51.466Z,996.00
2018-04-26T05:32:51.495Z,944.00
2018-04-26T05:33:51.526Z,960.00
2018-04-26T05:34:51.551Z,1040.00
2018-04-26T05:35:51.882Z,1244.00
2018-04-26T05:36:51.613Z,1548.00
2018-04-26T05:37:51.973Z,1704.00
2018-04-26T05:38:51.672Z,1708.00
2018-04-26T05:39:51.709Z,1600.00
2018-04-26T05:40:51.860Z,1400.00
2018-04-26T05:41:52.121Z,1276.00
2018-04-26T05:42:51.792Z,1272.00
2018-04-26T05:43:52.029Z,1320.00
2018-04-26T05:44:51.853Z,1288.00
2018-04-26T05:45:51.887Z,1200.00
2018-04-26T05:46:51.915Z,1260.00
2018-04-26T05:47:52.245Z,1208.00
2018-04-26T05:48:51.976Z,1152.00
2018-04-26T05:49:52.004Z,1168.00
2018-04-26T05:50:52.183Z,1224.00
2018-04-26T05:51:52.072Z,1224.00
2018-04-26T05:52:52.149Z,1372.00
2018-04-26T05:53:52.424Z,1636.00
2018-04-26T05:54:52.164Z,1848.00
2018-04-26T05:55:52.253Z,2008.00
2018-04-26T05:56:52.354Z,1996.00
2018-04-26T05:57:52.243Z,1772.00
2018-04-26T05:58:52.357Z,1620.00
2018-04-26T05:59:53.227Z,1584.00
2018-04-26T06:00:52.348Z,1640.00
2018-04-26T06:01:52.373Z,1564.00
2018-04-26T06:02:52.408Z,1612.00
2018-04-26T06:03:52.568Z,1604.00
2018-04-26T06:04:52.761Z,1636.00
2018-04-26T06:05:52.817Z,1776.00
2018-04-26T06:06:52.517Z,1880.00
2018-04-26T06:07:52.557Z,1812.00
2018-04-26T06:08:52.576Z,1832.00
2018-04-26T06:09:52.710Z,1948.00
2018-04-26T06:10:52.652Z,1996.00
2018-04-26T06:11:52.968Z,2084.00
2018-04-26T06:12:52.704Z,2068.00
2018-04-26T06:13:53.944Z,2020.00
2018-04-26T06:14:52.994Z,2096.00
2018-04-26T06:15:52.836Z,2104.00
2018-04-26T06:16:52.923Z,2072.00
2018-04-26T06:17:53.151Z,2052.00
2018-04-26T06:18:52.882Z,1860.00
2018-04-26T06:19:52.913Z,1640.00
2018-04-26T06:20:52.992Z,1564.00
2018-04-26T06:21:52.973Z,1548.00
2018-04-26T06:22:53.149Z,1568.00
2018-04-26T06:23:53.400Z,1708.00
2018-04-26T06:24:53.069Z,1780.00
2018-04-26T06:25:53.192Z,1780.00
2018-04-26T06:26:53.121Z,1680.00
2018-04-26T06:27:54.585Z,1656.00
2018-04-26T06:28:53.189Z,1632.00
2018-04-26T06:29:53.512Z,1616.00
2018-04-26T06:30:53.265Z,1464.00
2018-04-26T06:31:53.275Z,1316.00
2018-04-26T06:32:53.507Z,1444.00
2018-04-26T06:33:53.538Z,1368.00
2018-04-26T06:34:53.371Z,1140.00
2018-04-26T06:35:53.744Z,992.00
2018-04-26T06:36:53.468Z,856.00
2018-04-26T06:37:53.461Z,824.00
2018-04-26T06:38:53.585Z,764.00
2018-04-26T06:39:53.514Z,600.00
2018-04-26T06:40:53.696Z,636.00
2018-04-26T06:41:53.878Z,788.00
2018-04-26T06:42:53.620Z,948.00
2018-04-26T06:43:53.666Z,1120.00
2018-04-26T06:44:53.666Z,1340.00
2018-04-26T06:45:53.710Z,1544.00
2018-04-26T06:46:53.732Z,1628.00
2018-04-26T06:47:54.336Z,1512.00
2018-04-26T06:48:53.796Z,1624.00
2018-04-26T06:49:54.019Z,1864.00
2018-04-26T06:50:53.850Z,2080.00
2018-04-26T06:51:53.896Z,2396.00
2018-04-26T06:52:53.988Z,2756.00
2018-04-26T06:53:54.267Z,2892.00
2018-04-26T06:54:55.224Z,2700.00
2018-04-26T06:55:54.012Z,2320.00
2018-04-26T06:56:54.219Z,2108.00
2018-04-26T06:57:54.065Z,1824.00
2018-04-26T06:58:54.421Z,1704.00
2018-04-26T06:59:54.439Z,1760.00
2018-04-26T07:00:54.365Z,1656.00
2018-04-26T07:01:54.211Z,1544.00
2018-04-26T07:02:54.217Z,1816.00
2018-04-26T07:03:54.265Z,2576.00
2018-04-26T07:04:54.334Z,2972.00
2018-04-26T07:05:54.682Z,3508.00
2018-04-26T07:06:54.345Z,3204.00
2018-04-26T07:07:54.370Z,2380.00
2018-04-26T07:08:54.413Z,1916.00
2018-04-26T07:09:54.449Z,1952.00
2018-04-26T07:10:54.473Z,2268.00
2018-04-26T07:11:54.790Z,2780.00
2018-04-26T07:12:54.518Z,3344.00
2018-04-26T07:13:54.545Z,3784.00
2018-04-26T07:14:54.591Z,4200.00
2018-04-26T07:15:54.670Z,4592.00
2018-04-26T07:16:54.908Z,4216.00
2018-04-26T07:17:54.970Z,3492.00
2018-04-26T07:18:54.700Z,3004.00
2018-04-26T07:19:54.728Z,2732.00
2018-04-26T07:20:54.761Z,2744.00
2018-04-26T07:21:54.873Z,2968.00
2018-04-26T07:22:54.823Z,2640.00
2018-04-26T07:23:55.860Z,2436.00
2018-04-26T07:24:54.884Z,2308.00
2018-04-26T07:25:54.941Z,2200.00
2018-04-26T07:26:54.996Z,2192.00
2018-04-26T07:27:55.033Z,2188.00
2018-04-26T07:28:55.006Z,2188.00
2018-04-26T07:29:55.951Z,2688.00
2018-04-26T07:30:55.065Z,3056.00
2018-04-26T07:31:55.098Z,3544.00
2018-04-26T07:32:55.126Z,4068.00
2018-04-26T07:33:55.248Z,4368.00
2018-04-26T07:34:55.267Z,3916.00
2018-04-26T07:35:55.522Z,4532.00
2018-04-26T07:36:55.263Z,4532.00
2018-04-26T07:37:55.286Z,4116.00
2018-04-26T07:38:55.325Z,3908.00
2018-04-26T07:39:56.583Z,3508.00
2018-04-26T07:40:55.376Z,2888.00
2018-04-26T07:41:55.717Z,2404.00
2018-04-26T07:42:55.440Z,2544.00
2018-04-26T07:43:56.142Z,2896.00
2018-04-26T07:44:55.516Z,3604.00
2018-04-26T07:45:56.377Z,3760.00
2018-04-26T07:46:55.594Z,4116.00
2018-04-26T07:47:55.930Z,4320.00
2018-04-26T07:48:55.626Z,4416.00
2018-04-26T07:49:55.661Z,4400.00
2018-04-26T07:50:55.693Z,4640.00
2018-04-26T07:51:55.712Z,4744.00
2018-04-26T07:52:55.742Z,3648.00
2018-04-26T07:53:56.069Z,2960.00
2018-04-26T07:54:55.799Z,2664.00
2018-04-26T07:55:55.851Z,2488.00
2018-04-26T07:56:56.126Z,2536.00
2018-04-26T07:57:55.908Z,2620.00
2018-04-26T07:58:57.124Z,2508.00
2018-04-26T07:59:56.260Z,2644.00
2018-04-26T08:00:56.029Z,3044.00
2018-04-26T08:01:56.023Z,3548.00
2018-04-26T08:02:56.052Z,3544.00
2018-04-26T08:03:56.087Z,3428.00
2018-04-26T08:04:56.118Z,3164.00
2018-04-26T08:05:56.441Z,2996.00
2018-04-26T08:06:56.228Z,2816.00
2018-04-26T08:07:56.278Z,2520.00
2018-04-26T08:08:56.259Z,2696.00
2018-04-26T08:09:56.317Z,2980.00
2018-04-26T08:10:56.319Z,3348.00
2018-04-26T08:11:57.170Z,3940.00
2018-04-26T08:12:56.364Z,4496.00
2018-04-26T08:13:56.601Z,4436.00
2018-04-26T08:14:56.412Z,4792.00
2018-04-26T08:15:56.448Z,4712.00
2018-04-26T08:16:56.505Z,4460.00
2018-04-26T08:17:56.817Z,4084.00
2018-04-26T08:18:56.553Z,3332.00
2018-04-26T08:19:57.778Z,3244.00
2018-04-26T08:20:56.619Z,3664.00
2018-04-26T08:21:56.646Z,3740.00
2018-04-26T08:22:56.661Z,3844.00
2018-04-26T08:23:57.005Z,4484.00
2018-04-26T08:24:56.798Z,5544.00
2018-04-26T08:25:56.755Z,6260.00
2018-04-26T08:26:56.800Z,5396.00
2018-04-26T08:27:56.891Z,4616.00
2018-04-26T08:28:56.893Z,4184.00
2018-04-26T08:29:57.199Z,4556.00
2018-04-26T08:30:56.945Z,5212.00
2018-04-26T08:31:56.976Z,4700.00
2018-04-26T08:32:57.132Z,4132.00
2018-04-26T08:33:57.012Z,3796.00
2018-04-26T08:34:57.050Z,3844.00
2018-04-26T08:35:57.370Z,3640.00
2018-04-26T08:36:57.122Z,3144.00
2018-04-26T08:37:58.344Z,2476.00
2018-04-26T08:38:57.165Z,2288.00
2018-04-26T08:39:57.197Z,2308.00
2018-04-26T08:40:57.280Z,2424.00
2018-04-26T08:42:57.585Z,3736.00
2018-04-26T08:43:57.514Z,4256.00
2018-04-26T08:44:57.348Z,4624.00
2018-04-26T08:45:57.413Z,5688.00
2018-04-26T08:46:57.413Z,6248.00
2018-04-26T08:47:57.740Z,6352.00
2018-04-26T08:48:57.542Z,6444.00
2018-04-26T08:49:57.515Z,6096.00
2018-04-26T08:50:57.536Z,5672.00
2018-04-26T08:51:57.594Z,5552.00
2018-04-26T08:52:57.680Z,5028.00
2018-04-26T08:53:57.930Z,4204.00
2018-04-26T08:54:57.885Z,3316.00
2018-04-26T08:55:58.301Z,2748.00
2018-04-26T08:56:57.716Z,2632.00
2018-04-26T08:57:57.749Z,2880.00
2018-04-26T08:58:57.789Z,2940.00
2018-04-26T08:59:58.130Z,3112.00
2018-04-26T09:00:57.871Z,2952.00
2018-04-26T09:01:57.868Z,2612.00
2018-04-26T09:02:57.923Z,2872.00
2018-04-26T09:03:57.955Z,3024.00
2018-04-26T09:04:57.971Z,3388.00
2018-04-26T09:05:58.296Z,3268.00
2018-04-26T09:06:58.050Z,2928.00
2018-04-26T09:07:58.163Z,2456.00
2018-04-26T09:08:58.797Z,2280.00
2018-04-26T09:09:58.129Z,2212.00
2018-04-26T09:10:58.448Z,2452.00
2018-04-26T09:11:58.501Z,2544.00
2018-04-26T09:12:58.308Z,2300.00
2018-04-26T09:13:58.247Z,2200.00
2018-04-26T09:14:58.282Z,2356.00
2018-04-26T09:15:59.589Z,2468.00
2018-04-26T09:16:58.455Z,2476.00
2018-04-26T09:17:59.380Z,2600.00
2018-04-26T09:18:58.399Z,2880.00
2018-04-26T09:19:58.435Z,2896.00
2018-04-26T09:20:58.478Z,3156.00
2018-04-26T09:21:58.582Z,3336.00
2018-04-26T09:22:58.580Z,3400.00
2018-04-26T09:23:58.855Z,3212.00
2018-04-26T09:24:58.585Z,3140.00
2018-04-26T09:25:59.308Z,3304.00
2018-04-26T09:26:58.651Z,3428.00
2018-04-26T09:27:58.682Z,2948.00
2018-04-26T09:28:58.728Z,3020.00
2018-04-26T09:29:59.076Z,3396.00
2018-04-26T09:30:59.973Z,4132.00
2018-04-26T09:31:58.814Z,4796.00
2018-04-26T09:32:58.832Z,4224.00
2018-04-26T09:33:59.379Z,4736.00
2018-04-26T09:34:58.918Z,5700.00
2018-04-26T09:35:59.226Z,6260.00
2018-04-26T09:36:58.976Z,6204.00
2018-04-26T09:37:58.989Z,6080.00
2018-04-26T09:38:59.024Z,6244.00
2018-04-26T09:39:59.080Z,6740.00
2018-04-26T09:40:59.087Z,6844.00
2018-04-26T09:41:59.416Z,6856.00
2018-04-26T09:42:59.161Z,6740.00
2018-04-26T09:43:59.335Z,6568.00
2018-04-26T09:44:59.213Z,6296.00
2018-04-26T09:45:59.259Z,5712.00
2018-04-26T09:46:59.281Z,4856.00
2018-04-26T09:47:59.605Z,4096.00
2018-04-26T09:48:59.337Z,3132.00
2018-04-26T09:49:59.376Z,2568.00
2018-04-26T09:50:59.404Z,2436.00
2018-04-26T09:51:59.450Z,2456.00
2018-04-26T09:52:59.481Z,2420.00
2018-04-26T09:54:00.410Z,2728.00
2018-04-26T09:54:59.529Z,3648.00
2018-04-26T09:56:00.906Z,4576.00
2018-04-26T09:56:59.591Z,5412.00
2018-04-26T09:57:59.912Z,5972.00
2018-04-26T09:58:59.663Z,6820.00
2018-04-26T10:00:00.085Z,7604.00
2018-04-26T10:00:59.718Z,7284.00
2018-04-26T10:01:59.735Z,7668.00
2018-04-26T10:02:59.786Z,7392.00
2018-04-26T10:03:59.810Z,7224.00
2018-04-26T10:04:59.881Z,7188.00
2018-04-26T10:06:00.274Z,7320.00
2018-04-26T10:06:59.898Z,7248.00
2018-04-26T10:08:00.227Z,6856.00
2018-04-26T10:08:59.969Z,6264.00
2018-04-26T10:10:01.037Z,6120.00
2018-04-26T10:11:00.033Z,6288.00
2018-04-26T10:12:00.356Z,6788.00
2018-04-26T10:13:00.288Z,7136.00
2018-04-26T10:14:00.120Z,7464.00
2018-04-26T10:15:00.339Z,7584.00
2018-04-26T10:16:00.368Z,7016.00
2018-04-26T10:17:00.274Z,5972.00
2018-04-26T10:18:00.633Z,5516.00
2018-04-26T10:19:00.357Z,5212.00
2018-04-26T10:20:00.361Z,5384.00
2018-04-26T10:21:00.342Z,5820.00
2018-04-26T10:22:00.392Z,6272.00
2018-04-26T10:23:00.413Z,6620.00
2018-04-26T10:24:00.765Z,7064.00
2018-04-26T10:25:00.476Z,7320.00
2018-04-26T10:26:00.516Z,7280.00
2018-04-26T10:27:00.547Z,7168.00
2018-04-26T10:28:01.225Z,7208.00
2018-04-26T10:29:04.827Z,6720.00
2018-04-26T10:30:02.394Z,6388.00
2018-04-26T10:31:00.692Z,6184.00
2018-04-26T10:32:00.694Z,6308.00
2018-04-26T10:33:00.722Z,6584.00
2018-04-26T10:34:00.766Z,6728.00
2018-04-26T10:35:00.782Z,6964.00
2018-04-26T10:36:01.131Z,7084.00
2018-04-26T10:37:00.851Z,7244.00
2018-04-26T10:38:00.888Z,7636.00
2018-04-26T10:39:02.121Z,7700.00
2018-04-26T10:40:01.060Z,7716.00
2018-04-26T10:41:01.360Z,7284.00
2018-04-26T10:42:01.298Z,6816.00
2018-04-26T10:43:01.288Z,6860.00
2018-04-26T10:44:01.069Z,6760.00
2018-04-26T10:45:01.370Z,6352.00
2018-04-26T10:46:01.150Z,5884.00
2018-04-26T10:47:01.167Z,5096.00
2018-04-26T10:48:02.139Z,4572.00
2018-04-26T10:49:01.232Z,4212.00
2018-04-26T10:50:01.565Z,3968.00
2018-04-26T10:51:01.318Z,3848.00
2018-04-26T10:52:01.332Z,3556.00
2018-04-26T10:53:01.367Z,3776.00
2018-04-26T10:54:01.743Z,4388.00
2018-04-26T10:55:01.420Z,4980.00
2018-04-26T10:56:01.448Z,5232.00
2018-04-26T10:57:01.478Z,5216.00
2018-04-26T10:58:01.515Z,5340.00
2018-04-26T10:59:01.553Z,6200.00
2018-04-26T11:00:01.955Z,6728.00
2018-04-26T11:01:02.232Z,6716.00
2018-04-26T11:02:01.651Z,6404.00
2018-04-26T11:03:01.664Z,5968.00
2018-04-26T11:04:02.919Z,5720.00
2018-04-26T11:05:01.735Z,6188.00
2018-04-26T11:06:02.074Z,7184.00
2018-04-26T11:07:01.815Z,8140.00
2018-04-26T11:08:01.832Z,7988.00
2018-04-26T11:09:01.864Z,8184.00
2018-04-26T11:10:01.889Z,8504.00
2018-04-26T11:11:02.760Z,8144.00
2018-04-26T11:12:02.263Z,7008.00
2018-04-26T11:13:02.253Z,6492.00
2018-04-26T11:14:02.368Z,6120.00
2018-04-26T11:15:02.071Z,5696.00
2018-04-26T11:16:02.090Z,5400.00
2018-04-26T11:17:02.130Z,5416.00
2018-04-26T11:18:02.452Z,5940.00
2018-04-26T11:19:02.193Z,6204.00
2018-04-26T11:20:02.219Z,6248.00
2018-04-26T11:21:02.392Z,5828.00
2018-04-26T11:22:02.280Z,5496.00
2018-04-26T11:23:02.321Z,5600.00
2018-04-26T11:24:02.652Z,5460.00
2018-04-26T11:25:02.403Z,5344.00
2018-04-26T11:26:02.468Z,4692.00
2018-04-26T11:27:03.193Z,4108.00
2018-04-26T11:28:02.476Z,3900.00
2018-04-26T11:29:03.706Z,3400.00
2018-04-26T11:30:03.086Z,3088.00
2018-04-26T11:31:02.657Z,3224.00
2018-04-26T11:32:02.645Z,3672.00
2018-04-26T11:33:02.637Z,3956.00
2018-04-26T11:34:04.069Z,4336.00
2018-04-26T11:35:02.720Z,5016.00
2018-04-26T11:36:03.055Z,5636.00
2018-04-26T11:37:02.809Z,6108.00
2018-04-26T11:38:02.871Z,6688.00
2018-04-26T11:39:02.834Z,7112.00
2018-04-26T11:40:03.012Z,7532.00
2018-04-26T11:41:03.076Z,8024.00
2018-04-26T11:42:03.221Z,8180.00
2018-04-26T11:43:02.972Z,8424.00
2018-04-26T11:44:03.337Z,8288.00
2018-04-26T11:45:04.523Z,8208.00
2018-04-26T11:46:03.041Z,8312.00
2018-04-26T11:47:03.090Z,8268.00
2018-04-26T11:48:03.402Z,7612.00
2018-04-26T11:49:03.350Z,6676.00
2018-04-26T11:50:03.381Z,5636.00
2018-04-26T11:51:03.507Z,5024.00
2018-04-26T11:52:03.239Z,4728.00
2018-04-26T11:53:03.278Z,4156.00
2018-04-26T11:54:04.265Z,4512.00
2018-04-26T11:55:03.391Z,5472.00
2018-04-26T11:56:03.358Z,6656.00
2018-04-26T11:57:03.394Z,7736.00
2018-04-26T11:58:03.429Z,8504.00
2018-04-26T11:59:03.456Z,9056.00
2018-04-26T12:00:04.488Z,9464.00
2018-04-26T12:01:03.529Z,9024.00
2018-04-26T12:02:03.553Z,7792.00
2018-04-26T12:03:03.786Z,7212.00
2018-04-26T12:04:03.613Z,7212.00
2018-04-26T12:05:04.847Z,7524.00
2018-04-26T12:06:03.978Z,6664.00
2018-04-26T12:07:04.419Z,5716.00
2018-04-26T12:08:03.804Z,5500.00
2018-04-26T12:09:03.822Z,5600.00
2018-04-26T12:10:03.816Z,5812.00
2018-04-26T12:11:03.890Z,5788.00
2018-04-26T12:12:04.188Z,6516.00
2018-04-26T12:13:03.947Z,6156.00
2018-04-26T12:14:04.049Z,6500.00
2018-04-26T12:15:04.081Z,7140.00
2018-04-26T12:16:04.500Z,5124.00
2018-04-26T12:17:04.057Z,5140.00
2018-04-26T12:18:04.989Z,5772.00
2018-04-26T12:19:04.120Z,6544.00
2018-04-26T12:20:04.135Z,7172.00
2018-04-26T12:21:04.195Z,7396.00
2018-04-26T12:22:04.209Z,7780.00
2018-04-26T12:23:04.255Z,8408.00
2018-04-26T12:24:04.591Z,8268.00
2018-04-26T12:25:04.492Z,8280.00
2018-04-26T12:26:04.575Z,7828.00
2018-04-26T12:27:04.361Z,7536.00
2018-04-26T12:28:04.397Z,7852.00
2018-04-26T12:29:04.422Z,7456.00
2018-04-26T12:30:04.751Z,7292.00
2018-04-26T12:31:04.504Z,6900.00
2018-04-26T12:32:04.519Z,6500.00